Time;durP1;ratioP1;P1;durP2;ratioP2;P2;SDS_P1;SDS_P2;PMS_P1;PMS_P2;Temp;Humidity;BMP_temperature;BMP_pressure;BME280_temperature;BME280_humidity;BME280_pressure;Samples;Min_cycle;Max_cycle;Signal;HPM_P1;HPM_P2
2023/03/15 00:00:13;;;;;;;7.18;3.20;;;;;;;5.74;47.28;100498.50;690940;28;1174;-83
2023/03/15 00:00:34;;;;;;;8.13;3.40;;;;;;;5.79;47.79;100515.94;691190;28;783;-82
2023/03/15 00:00:55;;;;;;;7.75;3.38;;;;;;;5.80;47.02;100507.34;688321;28;1206;-83
2023/03/15 00:01:17;;;;;;;7.95;3.28;;;;;;;5.75;47.53;100502.84;685545;28;1387;-82
2023/03/15 00:01:38;;;;;;;7.70;3.15;;;;;;;5.79;47.38;100492.63;685721;28;1527;-83
2023/03/15 00:02:00;;;;;;;7.90;3.08;;;;;;;5.81;46.98;100501.34;685604;28;1174;-83
2023/03/15 00:02:21;;;;;;;9.02;3.10;;;;;;;5.78;47.21;100490.84;685591;28;1335;-82
2023/03/15 00:02:41;;;;;;;8.20;3.00;;;;;;;5.71;47.15;100493.16;680528;29;911;-83
2023/03/15 00:03:03;;;;;;;8.18;3.00;;;;;;;5.74;47.04;100502.78;685790;28;1130;-83
2023/03/15 00:03:23;;;;;;;7.82;3.05;;;;;;;5.78;47.29;100498.63;688269;28;870;-83
2023/03/15 00:03:45;;;;;;;10.25;3.80;;;;;;;5.82;47.12;100501.41;685524;28;1050;-83
2023/03/15 00:04:06;;;;;;;8.98;3.70;;;;;;;5.83;47.31;100503.19;682780;29;1111;-83
2023/03/15 00:04:27;;;;;;;8.45;3.60;;;;;;;5.88;47.27;100513.72;683018;29;1333;-81
2023/03/15 00:04:50;;;;;;;7.88;3.35;;;;;;;5.87;47.12;100518.03;680410;29;1359;-81
2023/03/15 00:05:14;;;;;;;7.03;3.40;;;;;;;5.81;47.13;100517.78;685436;28;1359;-81
2023/03/15 00:05:35;;;;;;;7.82;3.70;;;;;;;5.82;47.20;100503.13;683162;29;816;-81
2023/03/15 00:05:56;;;;;;;7.90;3.60;;;;;;;5.85;47.42;100511.03;685566;28;1221;-81
2023/03/15 00:06:16;;;;;;;7.00;3.28;;;;;;;5.92;46.81;100513.06;685615;28;1215;-80
2023/03/15 00:06:37;;;;;;;8.10;3.40;;;;;;;5.93;46.84;100514.81;683011;29;913;-81
2023/03/15 00:06:58;;;;;;;8.33;3.30;;;;;;;5.95;47.19;100520.09;685622;28;1158;-81
2023/03/15 00:07:18;;;;;;;8.38;3.40;;;;;;;5.91;47.17;100526.84;686009;28;1070;-82
2023/03/15 00:07:40;;;;;;;6.35;3.00;;;;;;;5.95;47.00;100533.03;680431;29;1216;-80
2023/03/15 00:08:06;;;;;;;6.75;3.17;;;;;;;5.92;47.33;100538.97;680323;28;1251;-81
2023/03/15 00:08:27;;;;;;;7.15;3.00;;;;;;;5.97;47.49;100532.28;680511;29;853;-81
2023/03/15 00:08:47;;;;;;;6.97;3.08;;;;;;;5.91;47.15;100532.00;680409;29;1211;-81
2023/03/15 00:09:08;;;;;;;5.37;2.70;;;;;;;5.92;47.73;100540.66;680288;29;1063;-81
2023/03/15 00:09:29;;;;;;;6.65;2.90;;;;;;;5.86;47.67;100533.50;685857;28;870;-81
2023/03/15 00:09:51;;;;;;;11.47;3.40;;;;;;;5.86;48.18;100531.81;686811;28;1221;-81
2023/03/15 00:10:12;;;;;;;13.93;3.72;;;;;;;5.84;48.56;100535.16;688207;28;1349;-81
2023/03/15 00:10:33;;;;;;;13.27;3.60;;;;;;;5.87;48.29;100540.44;688463;28;815;-82
2023/03/15 00:10:54;;;;;;;9.43;3.30;;;;;;;5.87;48.40;100524.91;685679;28;941;-80
2023/03/15 00:11:15;;;;;;;6.35;3.10;;;;;;;5.86;48.98;100536.09;685492;28;1364;-81
2023/03/15 00:11:36;;;;;;;6.85;3.20;;;;;;;5.83;48.55;100520.44;685770;28;791;-81
2023/03/15 00:11:57;;;;;;;7.13;3.25;;;;;;;5.84;48.81;100537.75;685713;28;1056;-81
2023/03/15 00:12:17;;;;;;;8.20;3.30;;;;;;;5.77;49.39;100528.78;688190;28;1196;-81
2023/03/15 00:12:41;;;;;;;7.05;3.20;;;;;;;5.66;49.34;100524.88;683030;29;776;-80
2023/03/15 00:13:02;;;;;;;5.90;3.10;;;;;;;5.71;49.82;100555.31;682959;28;2006;-81
2023/03/15 00:13:22;;;;;;;5.93;3.08;;;;;;;5.60;50.11;100530.66;682758;28;882;-81
2023/03/15 00:13:44;;;;;;;6.72;3.10;;;;;;;5.59;50.52;100550.47;688167;28;1193;-81
2023/03/15 00:14:05;;;;;;;6.63;3.00;;;;;;;5.51;50.82;100554.44;687874;28;1372;-81
2023/03/15 00:14:26;;;;;;;5.10;2.80;;;;;;;5.46;51.21;100559.41;688441;28;850;-81
2023/03/15 00:14:46;;;;;;;5.13;2.80;;;;;;;5.37;51.46;100545.13;691223;28;747;-80
2023/03/15 00:15:08;;;;;;;5.70;3.05;;;;;;;5.33;51.63;100557.94;682770;28;1169;-80
2023/03/15 00:15:29;;;;;;;7.18;3.40;;;;;;;5.23;52.09;100549.69;685664;28;1256;-80
2023/03/15 00:15:55;;;;;;;8.43;3.58;;;;;;;5.17;52.79;100558.94;682984;29;1000;-80
2023/03/15 00:16:16;;;;;;;8.63;3.70;;;;;;;5.11;52.79;100561.25;680257;29;1095;-80
2023/03/15 00:16:37;;;;;;;9.20;3.70;;;;;;;4.91;53.05;100548.25;685605;28;1378;-80
2023/03/15 00:16:58;;;;;;;7.32;3.50;;;;;;;4.85;53.99;100552.25;690685;28;1977;-80
2023/03/15 00:17:21;;;;;;;6.40;3.13;;;;;;;4.82;53.79;100562.44;682879;28;1036;-80
2023/03/15 00:17:43;;;;;;;4.75;3.03;;;;;;;4.70;54.21;100554.97;685714;28;878;-81
2023/03/15 00:18:04;;;;;;;5.07;2.80;;;;;;;4.56;54.63;100568.13;685297;28;1130;-80
2023/03/15 00:18:26;;;;;;;6.10;2.97;;;;;;;4.49;54.96;100563.47;691111;28;895;-80
2023/03/15 00:18:47;;;;;;;6.82;3.00;;;;;;;4.37;55.41;100549.13;685847;28;815;-82
2023/03/15 00:19:08;;;;;;;6.35;3.03;;;;;;;4.26;55.81;100552.88;690704;28;1204;-82
2023/03/15 00:19:29;;;;;;;5.95;3.08;;;;;;;4.23;55.78;100547.56;688454;28;878;-82
2023/03/15 00:19:50;;;;;;;5.15;3.00;;;;;;;4.08;56.64;100545.03;682296;29;1287;-81
2023/03/15 00:20:13;;;;;;;6.10;3.27;;;;;;;3.96;56.77;100534.97;679668;29;1146;-83
2023/03/15 00:20:36;;;;;;;5.72;3.15;;;;;;;3.92;57.22;100533.94;680417;29;1018;-82
2023/03/15 00:20:57;;;;;;;6.25;3.13;;;;;;;3.96;57.22;100541.03;685582;28;1848;-82
2023/03/15 00:21:18;;;;;;;7.18;3.00;;;;;;;3.82;57.92;100534.28;682887;29;1069;-81
2023/03/15 00:21:42;;;;;;;6.50;2.78;;;;;;;3.89;57.93;100548.38;691080;28;1144;-82
2023/03/15 00:22:02;;;;;;;4.47;2.60;;;;;;;3.78;58.28;100538.38;690871;28;1047;-81
2023/03/15 00:22:23;;;;;;;4.10;2.60;;;;;;;3.78;58.17;100534.91;690956;28;826;-82
2023/03/15 00:22:44;;;;;;;4.50;2.70;;;;;;;3.85;58.55;100542.16;687498;28;1147;-82
2023/03/15 00:23:05;;;;;;;6.43;2.80;;;;;;;3.78;58.86;100540.97;688908;28;1374;-83
2023/03/15 00:23:25;;;;;;;7.13;2.60;;;;;;;3.76;58.58;100532.28;686803;28;800;-82
2023/03/15 00:23:46;;;;;;;7.70;2.72;;;;;;;3.74;59.17;100533.84;685678;28;1121;-82
2023/03/15 00:24:07;;;;;;;9.05;3.17;;;;;;;3.77;59.23;100540.88;688106;28;1154;-81
2023/03/15 00:24:27;;;;;;;8.80;3.43;;;;;;;3.71;59.35;100528.56;688274;28;839;-82
2023/03/15 00:24:48;;;;;;;7.97;3.53;;;;;;;3.77;59.45;100539.19;688288;28;1138;-82
2023/03/15 00:25:09;;;;;;;4.05;3.13;;;;;;;3.69;59.65;100535.34;690667;28;1455;-83
2023/03/15 00:25:30;;;;;;;3.58;2.95;;;;;;;3.66;59.91;100535.16;691114;28;842;-82
2023/03/15 00:25:51;;;;;;;5.22;2.90;;;;;;;3.70;60.12;100534.53;688238;28;1342;-83
2023/03/15 00:26:12;;;;;;;5.80;2.90;;;;;;;3.73;60.08;100539.84;690751;28;1217;-83
2023/03/15 00:26:33;;;;;;;4.88;2.80;;;;;;;3.62;59.97;100531.53;685846;28;1271;-82
2023/03/15 00:26:53;;;;;;;4.85;2.97;;;;;;;3.66;60.45;100540.31;688073;28;1079;-82
2023/03/15 00:27:14;;;;;;;5.30;3.10;;;;;;;3.59;60.38;100533.06;688283;28;925;-82
2023/03/15 00:27:34;;;;;;;5.50;3.30;;;;;;;3.60;60.84;100535.72;682977;29;834;-82
2023/03/15 00:27:55;;;;;;;5.15;3.17;;;;;;;3.60;60.90;100534.84;690920;28;1179;-82
2023/03/15 00:28:16;;;;;;;4.57;3.03;;;;;;;3.56;60.84;100531.22;690854;28;1099;-82
2023/03/15 00:28:37;;;;;;;5.80;3.10;;;;;;;3.54;60.98;100532.81;685690;28;1199;-82
2023/03/15 00:28:58;;;;;;;4.63;2.80;;;;;;;3.52;60.99;100532.75;685541;28;1242;-82
2023/03/15 00:29:19;;;;;;;4.90;2.70;;;;;;;3.56;61.53;100536.38;682823;28;1490;-82
2023/03/15 00:29:39;;;;;;;4.10;2.72;;;;;;;3.56;61.35;100537.25;680330;29;795;-82
2023/03/15 00:30:00;;;;;;;4.40;2.80;;;;;;;3.53;61.52;100539.69;680265;29;1010;-82
2023/03/15 00:30:20;;;;;;;4.03;2.85;;;;;;;3.55;61.50;100540.66;680608;28;1093;-82
2023/03/15 00:30:42;;;;;;;5.45;3.03;;;;;;;3.53;61.74;100537.09;677765;29;801;-83
2023/03/15 00:31:06;;;;;;;7.97;3.40;;;;;;;3.60;61.59;100540.03;685391;28;1165;-82
2023/03/15 00:31:27;;;;;;;7.30;3.30;;;;;;;3.56;61.62;100539.84;685554;28;1377;-81
2023/03/15 00:31:48;;;;;;;6.37;2.80;;;;;;;3.49;62.11;100526.53;685680;28;870;-82
2023/03/15 00:32:09;;;;;;;4.60;2.75;;;;;;;3.63;62.10;100551.41;677556;29;1398;-82
2023/03/15 00:32:30;;;;;;;3.78;2.80;;;;;;;3.62;62.13;100547.00;680272;29;856;-82
2023/03/15 00:32:52;;;;;;;3.60;2.80;;;;;;;3.59;62.38;100540.81;680217;29;1200;-82
2023/03/15 00:33:14;;;;;;;4.00;2.92;;;;;;;3.60;62.12;100537.44;680218;29;1058;-82
2023/03/15 00:33:34;;;;;;;4.82;3.15;;;;;;;3.61;62.40;100541.78;685517;28;1234;-82
2023/03/15 00:33:55;;;;;;;5.90;3.30;;;;;;;3.66;62.37;100548.06;685568;28;1194;-82
2023/03/15 00:34:23;;;;;;;5.30;3.17;;;;;;;3.52;62.13;100532.75;682832;29;1150;-81
2023/03/15 00:34:47;;;;;;;3.85;2.80;;;;;;;3.54;62.49;100530.25;677741;29;1337;-82
2023/03/15 00:35:11;;;;;;;2.95;2.50;;;;;;;3.60;62.47;100538.31;685338;28;1200;-82
2023/03/15 00:35:37;;;;;;;3.72;2.85;;;;;;;3.60;62.60;100535.72;688298;28;1376;-82
2023/03/15 00:35:57;;;;;;;4.93;3.25;;;;;;;3.54;62.58;100531.13;688407;28;1083;-82
2023/03/15 00:36:22;;;;;;;5.93;3.40;;;;;;;3.53;62.89;100531.03;682663;29;1280;-82
2023/03/15 00:36:44;;;;;;;5.95;3.30;;;;;;;3.55;63.20;100527.75;682894;28;863;-81
2023/03/15 00:37:05;;;;;;;5.18;3.40;;;;;;;3.53;62.80;100529.38;682696;28;1108;-82
2023/03/15 00:37:26;;;;;;;6.55;3.30;;;;;;;3.52;63.38;100527.59;685674;28;1449;-82
2023/03/15 00:37:46;;;;;;;5.80;3.20;;;;;;;3.56;62.92;100534.69;688342;28;986;-82
2023/03/15 00:38:07;;;;;;;5.50;2.87;;;;;;;3.48;62.94;100520.50;690724;28;1186;-82
2023/03/15 00:38:28;;;;;;;3.65;2.95;;;;;;;3.46;62.94;100511.78;685759;28;816;-82
2023/03/15 00:38:50;;;;;;;5.05;3.00;;;;;;;3.49;63.11;100522.25;685690;28;760;-82
2023/03/15 00:39:14;;;;;;;6.15;3.20;;;;;;;3.63;63.41;100538.50;677512;29;1147;-82
2023/03/15 00:39:36;;;;;;;6.30;3.17;;;;;;;3.53;63.30;100526.78;683150;29;770;-82
2023/03/15 00:39:57;;;;;;;5.30;3.30;;;;;;;3.59;63.24;100538.22;685576;28;1128;-82
2023/03/15 00:40:18;;;;;;;6.45;3.40;;;;;;;3.56;63.53;100534.69;685350;28;1301;-82
2023/03/15 00:40:39;;;;;;;5.43;3.30;;;;;;;3.51;63.51;100520.66;685692;28;1332;-82
2023/03/15 00:41:12;;;;;;;6.65;3.22;;;;;;;3.56;63.41;100534.69;690818;28;1149;-82
2023/03/15 00:41:34;;;;;;;8.14;3.26;;;;;;;3.51;63.60;100524.94;685583;28;847;-82
2023/03/15 00:41:55;;;;;;;8.00;3.63;;;;;;;3.45;63.44;100522.91;688259;28;1071;-82
2023/03/15 00:42:16;;;;;;;8.88;4.00;;;;;;;3.55;63.46;100539.75;677467;29;1092;-82
2023/03/15 00:42:37;;;;;;;10.50;4.30;;;;;;;3.56;63.55;100547.59;677742;29;919;-82
2023/03/15 00:42:58;;;;;;;11.77;4.00;;;;;;;3.51;64.04;100538.72;685554;28;1124;-82
2023/03/15 00:43:18;;;;;;;10.17;3.93;;;;;;;3.44;63.62;100533.16;688119;28;1158;-82
2023/03/15 00:43:40;;;;;;;7.68;4.10;;;;;;;3.42;64.11;100530.47;688155;28;1073;-82
2023/03/15 00:44:00;;;;;;;5.20;4.15;;;;;;;3.47;63.85;100541.03;685514;28;1040;-83
2023/03/15 00:44:25;;;;;;;6.57;4.30;;;;;;;3.49;64.07;100548.06;680176;29;1210;-82
2023/03/15 00:44:46;;;;;;;8.05;4.20;;;;;;;3.39;63.93;100530.31;685559;28;1238;-82
2023/03/15 00:45:07;;;;;;;9.90;4.40;;;;;;;3.55;64.06;100558.72;687922;28;1365;-82
2023/03/15 00:45:28;;;;;;;10.77;4.20;;;;;;;3.48;64.41;100546.28;688272;28;941;-82
2023/03/15 00:45:48;;;;;;;10.27;4.03;;;;;;;3.44;64.12;100539.22;685621;28;858;-82
2023/03/15 00:46:10;;;;;;;9.60;4.10;;;;;;;3.51;64.31;100554.22;688032;28;1276;-82
2023/03/15 00:46:30;;;;;;;7.18;4.20;;;;;;;3.51;64.64;100555.88;691058;28;850;-82
2023/03/15 00:46:51;;;;;;;8.07;4.30;;;;;;;3.42;64.30;100541.69;687949;28;1339;-82
2023/03/15 00:47:13;;;;;;;8.40;4.20;;;;;;;3.48;64.13;100550.56;685318;28;1089;-82
2023/03/15 00:47:34;;;;;;;9.13;4.45;;;;;;;3.44;64.16;100536.63;686425;28;2031;-82
2023/03/15 00:47:54;;;;;;;8.77;4.70;;;;;;;3.48;64.73;100554.03;685368;28;1103;-82
2023/03/15 00:48:15;;;;;;;9.10;4.85;;;;;;;3.44;64.49;100546.94;682840;29;1055;-82
2023/03/15 00:48:36;;;;;;;8.63;4.63;;;;;;;3.49;64.58;100545.47;685628;28;1143;-82
2023/03/15 00:48:57;;;;;;;9.40;4.78;;;;;;;3.53;64.34;100557.75;683014;28;1092;-82
2023/03/15 00:49:17;;;;;;;10.38;4.90;;;;;;;3.49;64.70;100552.34;685352;28;1058;-82
2023/03/15 00:49:39;;;;;;;11.05;4.97;;;;;;;3.46;64.43;100541.84;688296;28;1426;-82
2023/03/15 00:50:00;;;;;;;8.77;4.70;;;;;;;3.42;65.00;100545.94;680063;28;1440;-82
2023/03/15 00:50:22;;;;;;;9.10;4.87;;;;;;;3.41;64.87;100541.59;690876;28;1125;-82
2023/03/15 00:50:42;;;;;;;8.05;5.00;;;;;;;3.46;64.84;100555.66;690923;28;858;-82
2023/03/15 00:51:07;;;;;;;8.43;4.80;;;;;;;3.51;64.70;100564.53;687998;28;1239;-82
2023/03/15 00:51:28;;;;;;;8.20;4.80;;;;;;;3.44;64.69;100548.63;688150;28;867;-82
2023/03/15 00:51:54;;;;;;;8.77;4.70;;;;;;;3.46;64.73;100552.16;685737;28;701;-83
2023/03/15 00:52:15;;;;;;;8.38;4.70;;;;;;;3.41;64.67;100555.41;688122;28;1146;-82
2023/03/15 00:52:37;;;;;;;8.13;5.10;;;;;;;3.38;65.12;100544.03;685599;28;1319;-82
2023/03/15 00:52:58;;;;;;;6.63;4.80;;;;;;;3.37;64.92;100544.84;687352;28;1125;-83
2023/03/15 00:53:18;;;;;;;7.15;4.90;;;;;;;3.39;64.81;100554.41;685431;28;1141;-82
2023/03/15 00:53:42;;;;;;;7.90;4.85;;;;;;;3.36;65.18;100545.66;688192;28;853;-82
2023/03/15 00:54:03;;;;;;;8.38;4.80;;;;;;;3.36;65.24;100546.53;687088;28;1086;-83
2023/03/15 00:54:23;;;;;;;10.38;5.00;;;;;;;3.45;65.25;100561.63;686448;28;796;-82
2023/03/15 00:54:53;;;;;;;13.38;5.10;;;;;;;3.40;64.95;100552.72;685603;28;1060;-83
2023/03/15 00:55:17;;;;;;;12.20;4.80;;;;;;;3.49;65.15;100565.25;682799;29;1147;-83
2023/03/15 00:55:38;;;;;;;11.90;5.20;;;;;;;3.39;65.10;100550.97;680200;29;1260;-82
2023/03/15 00:56:06;;;;;;;14.00;5.60;;;;;;;3.48;65.39;100566.94;682848;29;938;-82
2023/03/15 00:56:28;;;;;;;12.95;5.18;;;;;;;3.49;65.26;100563.53;682922;29;900;-82
2023/03/15 00:56:51;;;;;;;10.20;5.00;;;;;;;3.44;65.06;100548.63;685397;28;1914;-82
2023/03/15 00:57:12;;;;;;;9.02;4.90;;;;;;;3.41;65.35;100546.75;685475;28;1052;-82
2023/03/15 00:57:33;;;;;;;8.87;4.53;;;;;;;3.44;65.56;100554.69;687519;28;835;-83
2023/03/15 00:57:54;;;;;;;10.38;4.82;;;;;;;3.43;65.29;100552.88;685486;28;1036;-82
2023/03/15 00:58:14;;;;;;;10.68;4.70;;;;;;;3.49;65.07;100563.53;682677;28;1246;-82
2023/03/15 00:58:35;;;;;;;8.73;4.90;;;;;;;3.44;65.01;100553.78;685624;28;1306;-82
2023/03/15 00:58:57;;;;;;;8.20;4.90;;;;;;;3.42;65.41;100551.13;688126;28;1434;-82
2023/03/15 00:59:18;;;;;;;8.38;4.80;;;;;;;3.47;65.11;100554.84;688038;28;1047;-82
2023/03/15 00:59:38;;;;;;;7.90;4.50;;;;;;;3.43;65.28;100552.88;688295;28;935;-82
2023/03/15 01:00:07;;;;;;;9.23;4.57;;;;;;;3.45;65.22;100556.47;685471;28;1219;-82
2023/03/15 01:00:28;;;;;;;9.38;4.85;;;;;;;3.48;65.23;100559.19;685557;28;818;-82
2023/03/15 01:00:51;;;;;;;7.93;4.88;;;;;;;3.50;65.41;100560.16;685659;28;807;-83
2023/03/15 01:01:18;;;;;;;6.40;4.80;;;;;;;3.46;65.17;100558.22;688061;28;1053;-83
2023/03/15 01:01:43;;;;;;;5.35;4.20;;;;;;;3.46;65.45;100557.31;688148;28;1431;-82
2023/03/15 01:02:05;;;;;;;7.80;4.35;;;;;;;3.47;65.56;100554.84;687827;28;1109;-82
2023/03/15 01:02:25;;;;;;;8.75;4.45;;;;;;;3.49;65.62;100562.66;685578;28;1845;-82
2023/03/15 01:02:46;;;;;;;9.25;4.40;;;;;;;3.44;65.20;100549.53;685570;28;1268;-82
2023/03/15 01:03:07;;;;;;;9.20;4.50;;;;;;;3.45;65.48;100558.13;680003;29;1033;-82
2023/03/15 01:03:27;;;;;;;8.63;4.40;;;;;;;3.44;65.42;100546.94;685577;28;1050;-82
2023/03/15 01:03:49;;;;;;;7.70;4.50;;;;;;;3.48;65.68;100555.75;682888;28;1039;-83
2023/03/15 01:04:10;;;;;;;7.00;4.53;;;;;;;3.43;65.25;100547.72;680136;29;1053;-83
2023/03/15 01:04:31;;;;;;;8.00;4.95;;;;;;;3.54;65.67;100567.25;682805;28;1176;-82
2023/03/15 01:04:52;;;;;;;8.88;4.95;;;;;;;3.44;65.61;100556.38;685474;28;1205;-82
2023/03/15 01:05:13;;;;;;;8.50;4.70;;;;;;;3.51;65.64;100566.22;685325;28;1141;-82
2023/03/15 01:05:35;;;;;;;8.07;4.50;;;;;;;3.42;65.45;100553.69;688213;28;1376;-82
2023/03/15 01:05:55;;;;;;;8.73;4.70;;;;;;;3.40;65.53;100543.31;690886;28;874;-82
2023/03/15 01:06:21;;;;;;;10.23;5.20;;;;;;;3.46;65.50;100558.22;682649;28;1774;-82
2023/03/15 01:06:42;;;;;;;9.00;5.15;;;;;;;3.47;65.62;100565.16;682841;29;875;-82
2023/03/15 01:07:03;;;;;;;8.70;5.15;;;;;;;3.48;65.46;100566.06;682610;28;1062;-82
2023/03/15 01:07:24;;;;;;;7.78;5.00;;;;;;;3.50;65.49;100564.44;681513;29;986;-82
2023/03/15 01:07:44;;;;;;;9.27;5.20;;;;;;;3.45;65.14;100561.63;681334;29;966;-82
2023/03/15 01:08:05;;;;;;;10.75;5.78;;;;;;;3.41;65.50;100549.34;682085;28;1171;-82
2023/03/15 01:08:25;;;;;;;11.40;5.83;;;;;;;3.42;65.35;100559.75;680238;29;901;-82
2023/03/15 01:08:47;;;;;;;12.85;6.00;;;;;;;3.34;65.33;100540.41;685634;28;721;-82
2023/03/15 01:09:08;;;;;;;12.90;5.57;;;;;;;3.42;65.69;100554.59;685277;28;1260;-82
2023/03/15 01:09:30;;;;;;;13.50;6.35;;;;;;;3.45;65.70;100566.78;685663;28;871;-82
2023/03/15 01:09:51;;;;;;;12.20;6.47;;;;;;;3.38;65.30;100556.94;682771;28;1271;-82
2023/03/15 01:10:13;;;;;;;11.10;6.40;;;;;;;3.35;65.90;100543.84;677496;29;1300;-81
2023/03/15 01:10:34;;;;;;;10.54;5.86;;;;;;;3.44;65.47;100554.69;677564;29;765;-82
2023/03/15 01:11:01;;;;;;;10.63;6.00;;;;;;;3.36;65.36;100551.69;685418;28;1154;-82
2023/03/15 01:11:24;;;;;;;9.07;6.10;;;;;;;3.35;65.31;100549.00;688194;28;870;-82
2023/03/15 01:11:45;;;;;;;9.73;6.30;;;;;;;3.35;65.57;100546.44;685578;28;1935;-82
2023/03/15 01:12:06;;;;;;;13.00;6.70;;;;;;;3.37;65.60;100547.41;685306;28;1095;-82
2023/03/15 01:12:28;;;;;;;13.90;6.50;;;;;;;3.36;65.43;100548.22;685508;28;1371;-82
2023/03/15 01:12:48;;;;;;;14.70;6.22;;;;;;;3.35;65.82;100559.31;688183;28;1118;-83
2023/03/15 01:13:09;;;;;;;12.95;5.70;;;;;;;3.44;65.58;100565.00;685354;28;1123;-82
2023/03/15 01:13:30;;;;;;;12.23;6.22;;;;;;;3.37;65.47;100545.72;680187;29;1197;-82
2023/03/15 01:13:52;;;;;;;11.87;6.40;;;;;;;3.35;65.49;100549.00;682872;29;1103;-82
2023/03/15 01:14:13;;;;;;;14.55;7.00;;;;;;;3.34;65.42;100542.06;682632;28;1139;-82
2023/03/15 01:14:35;;;;;;;13.33;6.83;;;;;;;3.38;65.58;100555.22;680371;29;812;-82
2023/03/15 01:14:56;;;;;;;13.48;6.80;;;;;;;3.34;65.54;100548.13;682965;29;946;-83
2023/03/15 01:15:17;;;;;;;11.80;6.80;;;;;;;3.38;65.62;100551.78;688070;28;1264;-82
2023/03/15 01:15:37;;;;;;;14.38;7.25;;;;;;;3.38;65.57;100551.78;686453;28;820;-82
2023/03/15 01:15:58;;;;;;;13.57;7.50;;;;;;;3.38;65.86;100551.78;682702;29;1032;-82
2023/03/15 01:16:19;;;;;;;14.70;7.60;;;;;;;3.36;65.67;100548.22;682684;29;996;-83
2023/03/15 01:16:40;;;;;;;16.75;7.95;;;;;;;3.37;65.83;100552.56;677721;29;808;-83
2023/03/15 01:17:03;;;;;;;17.17;8.30;;;;;;;3.37;65.62;100547.41;687816;28;1920;-83
2023/03/15 01:17:24;;;;;;;16.58;7.85;;;;;;;3.36;65.65;100541.34;688322;28;843;-83
2023/03/15 01:17:45;;;;;;;16.10;7.97;;;;;;;3.36;66.01;100546.53;688261;28;1429;-82
2023/03/15 01:18:05;;;;;;;18.70;8.25;;;;;;;3.33;65.56;100542.88;682478;29;1143;-82
2023/03/15 01:18:26;;;;;;;18.33;8.73;;;;;;;3.34;65.64;100545.56;688122;28;1133;-82
2023/03/15 01:18:47;;;;;;;17.70;8.80;;;;;;;3.34;66.06;100542.06;688098;28;1065;-82
2023/03/15 01:19:08;;;;;;;18.38;9.30;;;;;;;3.45;65.86;100553.88;685241;28;1212;-82
2023/03/15 01:19:28;;;;;;;18.55;9.10;;;;;;;3.40;66.00;100542.41;680210;28;1179;-82
2023/03/15 01:19:50;;;;;;;17.17;8.75;;;;;;;3.38;65.89;100544.03;680269;29;1253;-82
2023/03/15 01:20:14;;;;;;;14.85;8.30;;;;;;;3.34;65.79;100537.81;685482;28;856;-82
2023/03/15 01:20:35;;;;;;;15.07;8.30;;;;;;;3.33;65.64;100530.88;688208;28;1240;-83
2023/03/15 01:20:57;;;;;;;14.65;8.40;;;;;;;3.44;65.74;100557.28;688223;28;1076;-82
2023/03/15 01:21:19;;;;;;;14.68;8.20;;;;;;;3.39;66.01;100544.09;687095;28;1348;-82
2023/03/15 01:21:41;;;;;;;13.68;8.20;;;;;;;3.33;65.83;100536.06;688204;28;1343;-82
2023/03/15 01:22:02;;;;;;;14.20;8.73;;;;;;;3.36;65.75;100540.50;685268;28;1211;-82
2023/03/15 01:22:23;;;;;;;14.40;9.13;;;;;;;3.38;65.75;100544.03;682829;29;1151;-82
2023/03/15 01:22:44;;;;;;;14.85;9.52;;;;;;;3.32;65.80;100533.38;688213;28;1507;-81
2023/03/15 01:23:05;;;;;;;16.77;9.40;;;;;;;3.35;66.06;100539.59;685260;28;1242;-82
2023/03/15 01:23:25;;;;;;;16.50;8.80;;;;;;;3.35;65.79;100537.00;688240;28;796;-83
2023/03/15 01:23:46;;;;;;;17.77;8.70;;;;;;;3.39;65.83;100540.63;682941;28;927;-82
2023/03/15 01:24:12;;;;;;;16.85;9.00;;;;;;;3.37;66.07;100537.09;688029;28;1122;-82
2023/03/15 01:24:32;;;;;;;17.60;9.35;;;;;;;3.29;66.02;100528.94;685451;28;1154;-82
2023/03/15 01:24:53;;;;;;;17.00;9.32;;;;;;;3.37;65.88;100534.53;685456;28;1068;-82
2023/03/15 01:25:13;;;;;;;14.67;8.93;;;;;;;3.40;65.95;100539.84;683232;28;1266;-82
2023/03/15 01:25:40;;;;;;;14.80;8.90;;;;;;;3.37;65.92;100534.53;680791;29;1148;-82
2023/03/15 01:26:02;;;;;;;14.07;8.90;;;;;;;3.40;65.92;100545.91;683230;28;1086;-82
2023/03/15 01:26:23;;;;;;;14.55;9.07;;;;;;;3.35;66.02;100533.53;685965;28;1242;-83
2023/03/15 01:26:44;;;;;;;15.52;9.00;;;;;;;3.34;65.58;100531.75;683255;28;1057;-83
2023/03/15 01:27:04;;;;;;;15.57;9.43;;;;;;;3.44;65.79;100549.53;685491;28;1149;-82
2023/03/15 01:27:25;;;;;;;15.50;9.90;;;;;;;3.36;65.87;100527.59;688903;28;942;-82
2023/03/15 01:27:47;;;;;;;16.52;9.98;;;;;;;3.36;66.05;100535.34;688784;28;1351;-82
2023/03/15 01:28:07;;;;;;;16.92;9.60;;;;;;;3.37;66.12;100537.09;685965;28;1220;-82
2023/03/15 01:28:29;;;;;;;16.45;9.52;;;;;;;3.32;66.15;100528.22;688725;28;1433;-82
2023/03/15 01:28:50;;;;;;;15.35;9.80;;;;;;;3.34;66.00;100532.66;683293;28;1328;-83
2023/03/15 01:29:12;;;;;;;14.88;9.80;;;;;;;3.37;66.37;100537.09;683247;28;1017;-82
2023/03/15 01:29:33;;;;;;;13.03;9.20;;;;;;;3.38;66.35;100541.44;678189;29;1210;-82
2023/03/15 01:29:55;;;;;;;12.95;8.90;;;;;;;3.42;66.47;100543.38;683391;28;1011;-82
2023/03/15 01:30:15;;;;;;;15.43;8.93;;;;;;;3.37;66.36;100535.41;685874;28;1049;-82
2023/03/15 01:30:36;;;;;;;17.42;9.00;;;;;;;3.41;66.40;100541.59;686065;28;815;-83
2023/03/15 01:30:57;;;;;;;18.80;9.20;;;;;;;3.38;66.27;100536.28;688663;28;1153;-82
2023/03/15 01:31:19;;;;;;;16.20;9.20;;;;;;;3.48;66.34;100551.44;683241;29;1230;-82
2023/03/15 01:31:40;;;;;;;15.15;9.40;;;;;;;3.42;66.30;100535.63;688732;28;1184;-82
2023/03/15 01:32:01;;;;;;;13.98;9.50;;;;;;;3.51;66.48;100551.63;685843;28;1294;-82
2023/03/15 01:32:22;;;;;;;14.45;9.68;;;;;;;3.53;66.22;100555.16;678208;29;912;-82
2023/03/15 01:32:43;;;;;;;17.70;9.70;;;;;;;3.46;66.38;100531.53;683401;28;1103;-82
2023/03/15 01:33:04;;;;;;;20.80;9.70;;;;;;;3.48;66.28;100538.53;683134;28;1193;-82
2023/03/15 01:33:24;;;;;;;18.40;9.30;;;;;;;3.44;66.53;100533.16;691492;28;1168;-82
2023/03/15 01:33:45;;;;;;;15.60;8.95;;;;;;;3.50;66.54;100546.38;688349;28;1173;-82
2023/03/15 01:34:07;;;;;;;14.30;8.93;;;;;;;3.55;66.20;100548.38;685882;28;1108;-82
2023/03/15 01:34:28;;;;;;;14.88;9.02;;;;;;;3.45;66.53;100540.97;686169;28;799;-82
2023/03/15 01:34:49;;;;;;;16.65;9.25;;;;;;;3.56;66.64;100549.28;683380;29;1065;-82
2023/03/15 01:35:09;;;;;;;15.32;9.20;;;;;;;3.51;66.35;100533.56;680557;29;1120;-82
2023/03/15 01:35:30;;;;;;;17.60;9.90;;;;;;;3.57;66.23;100545.91;683426;29;1203;-82
2023/03/15 01:36:05;;;;;;;16.63;9.77;;;;;;;3.59;66.40;100546.84;685948;28;1287;-82
2023/03/15 01:36:26;;;;;;;18.40;9.52;;;;;;;3.56;66.78;100544.13;683364;29;796;-82
2023/03/15 01:36:53;;;;;;;18.90;9.23;;;;;;;3.71;66.53;100567.25;685796;28;1914;-82
2023/03/15 01:37:17;;;;;;;18.20;9.15;;;;;;;3.58;66.18;100546.78;685691;28;1359;-82
2023/03/15 01:37:39;;;;;;;15.88;8.98;;;;;;;3.57;66.46;100540.75;683485;29;850;-82
2023/03/15 01:38:00;;;;;;;17.25;9.40;;;;;;;3.61;66.38;100552.97;688570;28;1017;-82
2023/03/15 01:38:20;;;;;;;17.60;9.63;;;;;;;3.58;66.19;100552.84;688766;28;1077;-82
2023/03/15 01:38:41;;;;;;;15.98;9.57;;;;;;;3.55;66.30;100543.22;688698;28;1125;-82
2023/03/15 01:39:03;;;;;;;15.65;9.50;;;;;;;3.64;66.63;100550.59;691267;28;1019;-82
2023/03/15 01:39:32;;;;;;;16.80;9.68;;;;;;;3.65;66.51;100554.94;686176;28;878;-82
2023/03/15 01:39:53;;;;;;;15.70;9.90;;;;;;;3.70;66.21;100558.63;683378;28;1024;-83
2023/03/15 01:40:19;;;;;;;13.90;10.02;;;;;;;3.67;66.49;100553.31;685452;28;1246;-83
2023/03/15 01:40:42;;;;;;;13.05;9.88;;;;;;;3.65;66.85;100543.72;688797;28;1095;-83
2023/03/15 01:41:03;;;;;;;14.50;9.68;;;;;;;3.67;66.07;100557.56;685673;28;1217;-82
2023/03/15 01:41:26;;;;;;;16.23;9.77;;;;;;;3.69;66.56;100555.97;686101;28;855;-82
2023/03/15 01:41:47;;;;;;;15.65;9.85;;;;;;;3.67;66.32;100552.41;683409;28;866;-83
2023/03/15 01:42:08;;;;;;;14.00;9.60;;;;;;;3.66;66.77;100540.31;680414;28;1071;-83
2023/03/15 01:42:29;;;;;;;14.02;9.70;;;;;;;3.68;66.15;100544.75;680787;29;820;-82
2023/03/15 01:42:52;;;;;;;16.33;10.10;;;;;;;3.68;66.24;100554.22;680770;28;1156;-82
2023/03/15 01:43:16;;;;;;;18.00;10.55;;;;;;;3.69;66.55;100545.66;683215;28;1296;-82
2023/03/15 01:43:36;;;;;;;19.27;11.00;;;;;;;3.66;66.17;100541.22;688760;28;1365;-82
2023/03/15 01:43:57;;;;;;;19.50;10.48;;;;;;;3.70;66.28;100552.59;686014;28;1155;-82
2023/03/15 01:44:19;;;;;;;20.87;10.07;;;;;;;3.75;66.50;100552.81;688627;28;1127;-82